createdAt,value
2018-04-16T00:01:07.877Z,6.07
2018-04-16T00:03:35.987Z,5.97
2018-04-16T00:06:04.901Z,6.00
2018-04-16T00:08:33.005Z,6.50
2018-04-16T00:11:01.155Z,6.00
2018-04-16T00:13:29.311Z,6.63
2018-04-16T00:15:57.419Z,6.33
2018-04-16T00:18:25.562Z,6.43
2018-04-16T00:20:53.683Z,6.20
2018-04-16T00:23:21.793Z,7.00
2018-04-16T00:25:50.786Z,6.53
2018-04-16T00:28:19.666Z,7.03
2018-04-16T00:30:48.582Z,7.20
2018-04-16T00:36:26.462Z,6.77
2018-04-16T00:39:00.255Z,7.60
2018-04-16T00:41:33.999Z,6.83
2018-04-16T00:44:08.633Z,7.37
2018-04-16T00:46:42.401Z,7.47
2018-04-16T00:49:16.327Z,7.67
2018-04-16T00:51:50.963Z,7.37
2018-04-16T00:54:25.457Z,8.07
2018-04-16T00:56:59.257Z,8.17
2018-04-16T00:59:33.010Z,8.93
2018-04-16T01:02:06.828Z,8.13
2018-04-16T01:04:40.554Z,8.57
2018-04-16T01:07:14.239Z,8.30
2018-04-16T01:09:47.976Z,8.33
2018-04-16T01:12:21.791Z,8.73
2018-04-16T01:15:05.611Z,8.17
2018-04-16T01:17:39.370Z,8.30
2018-04-16T01:20:13.286Z,8.57
2018-04-16T01:22:47.064Z,8.90
2018-04-16T01:25:21.592Z,8.70
2018-04-16T01:27:56.148Z,8.20
2018-04-16T01:30:30.436Z,8.00
2018-04-16T01:33:05.167Z,8.50
2018-04-16T01:35:39.741Z,7.57
2018-04-16T01:38:13.478Z,7.30
2018-04-16T01:40:47.231Z,7.80
2018-04-16T01:43:20.968Z,7.97
2018-04-16T01:45:54.885Z,8.13
2018-04-16T01:48:28.708Z,7.90
2018-04-16T01:51:02.475Z,8.07
2018-04-16T01:53:36.265Z,8.52
2018-04-16T01:56:10.152Z,8.27
2018-04-16T01:58:43.971Z,8.33
2018-04-16T02:01:17.721Z,9.17
2018-04-16T02:03:52.232Z,9.37
2018-04-16T02:06:26.139Z,10.03
2018-04-16T02:08:59.936Z,9.67
2018-04-16T02:14:37.558Z,10.25
2018-04-16T02:17:11.490Z,9.53
2018-04-16T02:19:45.973Z,9.53
2018-04-16T02:22:19.831Z,8.88
2018-04-16T02:24:54.349Z,9.53
2018-04-16T02:27:28.903Z,9.73
2018-04-16T02:30:02.665Z,9.90
2018-04-16T02:32:37.177Z,8.80
2018-04-16T02:35:11.086Z,9.35
2018-04-16T02:40:50.246Z,8.20
2018-04-16T02:43:24.881Z,8.10
2018-04-16T02:45:59.593Z,8.20
2018-04-16T02:48:33.389Z,8.30
2018-04-16T02:51:07.107Z,8.05
2018-04-16T02:53:41.639Z,7.68
2018-04-16T02:56:16.121Z,8.30
2018-04-16T02:58:49.868Z,8.95
2018-04-16T03:04:28.137Z,8.07
2018-04-16T03:07:01.982Z,8.18
2018-04-16T03:09:35.763Z,8.45
2018-04-16T03:12:09.535Z,8.73
2018-04-16T03:14:43.276Z,8.47
2018-04-16T03:17:17.139Z,8.60
2018-04-16T03:19:50.965Z,8.88
2018-04-16T03:22:24.859Z,8.68
2018-04-16T03:24:58.781Z,8.77
2018-04-16T03:27:32.659Z,8.73
2018-04-16T03:30:07.156Z,9.07
2018-04-16T03:32:40.997Z,9.32
2018-04-16T03:35:14.771Z,9.00
2018-04-16T03:37:48.620Z,8.35
2018-04-16T03:40:22.359Z,9.35
2018-04-16T03:42:56.206Z,9.75
2018-04-16T03:45:30.677Z,8.88
2018-04-16T03:48:04.505Z,9.38
2018-04-16T03:50:38.279Z,10.18
2018-04-16T03:53:12.021Z,8.93
2018-04-16T03:55:55.036Z,9.82
2018-04-16T03:58:23.230Z,10.32
2018-04-16T04:00:51.341Z,9.35
2018-04-16T04:03:19.497Z,9.77
2018-04-16T04:05:47.635Z,9.68
2018-04-16T04:08:15.756Z,10.57
2018-04-16T04:10:43.882Z,10.13
2018-04-16T04:13:12.014Z,10.18
2018-04-16T04:15:40.128Z,9.77
2018-04-16T04:18:08.241Z,10.70
2018-04-16T04:20:36.404Z,11.00
2018-04-16T04:23:16.414Z,10.90
2018-04-16T04:25:56.461Z,10.25
2018-04-16T04:28:36.503Z,10.32
2018-04-16T04:31:04.626Z,10.13
2018-04-16T04:33:33.529Z,10.23
2018-04-16T04:36:01.650Z,10.18
2018-04-16T04:38:29.863Z,10.05
2018-04-16T04:40:58.763Z,10.48
2018-04-16T04:43:26.922Z,10.05
2018-04-16T04:45:55.836Z,10.52
2018-04-16T04:48:23.961Z,10.50
2018-04-16T04:50:52.102Z,10.20
2018-04-16T04:53:20.274Z,10.73
2018-04-16T04:55:48.396Z,9.43
2018-04-16T04:58:17.328Z,9.95
2018-04-16T05:00:45.448Z,10.40
2018-04-16T05:03:13.598Z,9.45
2018-04-16T05:05:41.717Z,9.88
2018-04-16T05:08:10.604Z,9.40
2018-04-16T05:10:39.493Z,8.85
2018-04-16T05:13:08.505Z,9.75
2018-04-16T05:15:36.621Z,9.05
2018-04-16T05:18:04.756Z,10.15
2018-04-16T05:20:32.890Z,9.77
2018-04-16T05:23:01.367Z,9.13
2018-04-16T05:25:29.573Z,9.75
2018-04-16T05:27:57.700Z,9.63
2018-04-16T05:30:25.842Z,9.43
2018-04-16T05:32:53.957Z,10.10
2018-04-16T05:35:22.113Z,9.57
2018-04-16T05:37:50.213Z,8.82
2018-04-16T05:40:19.113Z,8.80
2018-04-16T05:42:48.017Z,8.50
2018-04-16T05:45:16.927Z,8.68
2018-04-16T05:47:45.042Z,8.00
2018-04-16T05:50:13.253Z,7.72
2018-04-16T05:52:41.381Z,8.63
2018-04-16T05:55:09.549Z,8.40
2018-04-16T05:57:37.682Z,8.20
2018-04-16T06:00:05.803Z,9.90
2018-04-16T06:02:33.989Z,7.70
2018-04-16T06:05:02.105Z,7.97
2018-04-16T06:07:30.221Z,7.78
2018-04-16T06:09:58.384Z,7.60
2018-04-16T06:12:26.637Z,7.57
2018-04-16T06:14:54.809Z,7.18
2018-04-16T06:17:22.992Z,7.72
2018-04-16T06:19:51.145Z,6.87
2018-04-16T06:22:19.298Z,6.87
2018-04-16T06:24:48.181Z,7.07
2018-04-16T06:27:17.107Z,6.82
2018-04-16T06:29:46.118Z,7.00
2018-04-16T06:32:14.212Z,7.50
2018-04-16T06:34:42.431Z,7.30
2018-04-16T06:37:10.545Z,6.87
2018-04-16T06:39:38.773Z,6.45
2018-04-16T06:42:07.677Z,7.13
2018-04-16T06:44:35.846Z,7.07
2018-04-16T06:47:04.039Z,6.50
2018-04-16T06:49:32.194Z,5.67
2018-04-16T06:52:00.394Z,6.00
2018-04-16T06:54:28.506Z,5.07
2018-04-16T06:56:56.710Z,5.20
2018-04-16T06:59:24.836Z,4.80
2018-04-16T07:01:53.102Z,5.53
2018-04-16T07:04:21.264Z,4.93
2018-04-16T07:06:49.410Z,4.50
2018-04-16T07:09:17.544Z,4.40
2018-04-16T07:11:45.667Z,4.57
2018-04-16T07:14:13.806Z,4.37
2018-04-16T07:16:42.696Z,4.23
2018-04-16T07:19:11.590Z,3.67
2018-04-16T07:21:40.476Z,4.97
2018-04-16T07:24:09.377Z,4.50
2018-04-16T07:26:37.501Z,4.00
2018-04-16T07:29:05.659Z,4.30
2018-04-16T07:31:33.765Z,4.40
2018-04-16T07:34:02.687Z,4.50
2018-04-16T07:36:31.686Z,4.30
2018-04-16T07:38:59.885Z,4.10
2018-04-16T07:41:27.977Z,4.10
2018-04-16T07:43:56.234Z,4.60
2018-04-16T07:46:24.338Z,3.77
2018-04-16T07:48:53.982Z,3.90
2018-04-16T07:51:22.875Z,4.70
2018-04-16T07:53:51.758Z,4.20
2018-04-16T07:56:20.656Z,4.30
2018-04-16T07:58:48.782Z,3.90
2018-04-16T08:01:16.902Z,4.23
2018-04-16T08:03:45.085Z,3.90
2018-04-16T08:06:13.278Z,4.13
2018-04-16T08:08:41.378Z,3.77
2018-04-16T08:11:09.497Z,3.80
2018-04-16T08:13:37.623Z,4.00
2018-04-16T08:16:05.916Z,3.57
2018-04-16T08:18:33.998Z,3.53
2018-04-16T08:21:02.871Z,3.93
2018-04-16T08:23:31.043Z,3.90
2018-04-16T08:26:00.776Z,3.70
2018-04-16T08:28:29.664Z,3.73
2018-04-16T08:30:58.615Z,4.00
2018-04-16T08:33:26.731Z,4.17
2018-04-16T08:35:55.659Z,3.77
2018-04-16T08:38:23.786Z,4.03
2018-04-16T08:40:51.980Z,4.27
2018-04-16T08:43:20.975Z,4.23
2018-04-16T08:45:49.894Z,3.60
2018-04-16T08:48:18.070Z,4.17
2018-04-16T08:50:46.170Z,4.60
2018-04-16T08:53:15.114Z,4.83
2018-04-16T08:55:43.242Z,4.17
2018-04-16T08:58:12.122Z,4.20
2018-04-16T09:00:40.284Z,4.00
2018-04-16T09:03:08.421Z,4.17
2018-04-16T09:05:36.580Z,4.23
2018-04-16T09:08:05.454Z,4.33
2018-04-16T09:10:33.620Z,4.30
2018-04-16T09:13:01.822Z,4.80
2018-04-16T09:15:29.993Z,4.30
2018-04-16T09:17:58.901Z,3.93
2018-04-16T09:20:27.050Z,4.33
2018-04-16T09:22:55.944Z,4.20
2018-04-16T09:25:24.823Z,5.10
2018-04-16T09:27:53.716Z,3.80
2018-04-16T09:30:22.621Z,4.83
2018-04-16T09:32:51.485Z,4.80
2018-04-16T09:35:19.690Z,4.53
2018-04-16T09:37:48.683Z,3.70
2018-04-16T09:40:16.805Z,3.90
2018-04-16T09:42:44.933Z,4.13
2018-04-16T09:45:13.143Z,4.20
2018-04-16T09:47:41.307Z,3.77
2018-04-16T09:50:09.407Z,4.10
2018-04-16T09:52:37.535Z,3.50
2018-04-16T09:55:05.694Z,4.00
2018-04-16T09:57:34.611Z,3.67
2018-04-16T10:00:02.724Z,3.53
2018-04-16T10:02:30.844Z,4.10
2018-04-16T10:04:58.984Z,3.37
2018-04-16T10:07:27.276Z,3.80
2018-04-16T10:09:56.170Z,3.53
2018-04-16T10:12:25.056Z,3.80
2018-04-16T10:14:53.989Z,2.90
2018-04-16T10:17:22.132Z,3.00
2018-04-16T10:19:51.045Z,3.10
2018-04-16T10:22:19.161Z,3.77
2018-04-16T10:24:47.309Z,3.60
2018-04-16T10:27:15.455Z,3.80
2018-04-16T10:29:43.573Z,3.30
2018-04-16T10:32:12.461Z,3.20
2018-04-16T10:34:40.703Z,3.07
2018-04-16T10:37:08.816Z,3.10
2018-04-16T10:39:37.035Z,3.33
2018-04-16T10:42:05.189Z,3.60
2018-04-16T10:44:34.114Z,3.17
2018-04-16T10:47:02.248Z,3.20
2018-04-16T10:49:31.133Z,3.00
2018-04-16T10:52:00.051Z,3.00
2018-04-16T10:54:28.178Z,3.00
2018-04-16T10:56:57.848Z,2.50
2018-04-16T10:59:26.006Z,2.60
2018-04-16T11:01:54.370Z,2.47
2018-04-16T11:04:23.293Z,2.83
2018-04-16T11:06:51.526Z,2.70
2018-04-16T11:09:19.646Z,2.70
2018-04-16T11:11:47.774Z,2.70
2018-04-16T11:14:16.706Z,3.07
2018-04-16T11:16:44.830Z,2.60
2018-04-16T11:19:13.858Z,2.80
2018-04-16T11:21:42.711Z,3.20
2018-04-16T11:24:11.604Z,2.73
2018-04-16T11:26:39.828Z,3.00
2018-04-16T11:29:08.004Z,2.83
2018-04-16T11:31:36.109Z,2.80
2018-04-16T11:34:05.042Z,2.57
2018-04-16T11:36:33.145Z,2.73
2018-04-16T11:39:01.266Z,2.50
2018-04-16T11:41:30.184Z,2.83
2018-04-16T11:43:58.306Z,2.77
2018-04-16T11:46:26.513Z,2.53
2018-04-16T11:48:55.449Z,2.77
2018-04-16T11:51:23.566Z,2.90
2018-04-16T11:53:52.445Z,2.67
2018-04-16T11:56:20.609Z,2.40
2018-04-16T11:58:50.368Z,2.67
2018-04-16T12:01:18.485Z,2.70
2018-04-16T12:03:46.631Z,2.30
2018-04-16T12:06:14.765Z,2.30
2018-04-16T12:08:42.877Z,2.90
2018-04-16T12:11:10.999Z,2.67
2018-04-16T12:13:39.137Z,2.53
2018-04-16T12:16:07.266Z,2.70
2018-04-16T12:18:36.171Z,2.83
2018-04-16T12:21:04.339Z,2.90
2018-04-16T12:23:33.210Z,2.97
2018-04-16T12:26:02.110Z,2.67
2018-04-16T12:28:31.109Z,2.70
2018-04-16T12:30:59.245Z,2.43
2018-04-16T12:33:27.390Z,2.73
2018-04-16T12:35:55.505Z,2.67
2018-04-16T12:38:24.489Z,2.60
2018-04-16T12:40:52.606Z,2.57
2018-04-16T12:43:20.741Z,2.70
2018-04-16T12:45:48.864Z,2.93
2018-04-16T12:48:17.044Z,2.83
2018-04-16T12:50:45.137Z,2.53
2018-04-16T12:53:13.249Z,2.80
2018-04-16T12:55:42.168Z,2.23
2018-04-16T12:58:10.289Z,2.30
2018-04-16T13:00:39.170Z,2.40
2018-04-16T13:03:07.315Z,2.90
2018-04-16T13:05:36.193Z,2.30
2018-04-16T13:08:04.310Z,2.60
2018-04-16T13:10:32.487Z,2.77
2018-04-16T13:13:01.375Z,2.90
2018-04-16T13:15:29.509Z,2.70
2018-04-16T13:17:57.635Z,2.60
2018-04-16T13:20:25.830Z,2.57
2018-04-16T13:22:54.715Z,2.60
2018-04-16T13:25:23.593Z,2.80
2018-04-16T13:27:52.489Z,2.70
2018-04-16T13:30:21.397Z,2.77
2018-04-16T13:32:49.553Z,2.87
2018-04-16T13:35:18.500Z,2.47
2018-04-16T13:37:46.597Z,2.67
2018-04-16T13:40:14.740Z,2.80
2018-04-16T13:42:42.855Z,2.70
2018-04-16T13:45:11.731Z,2.17
2018-04-16T13:47:39.846Z,2.70
2018-04-16T13:50:08.014Z,2.13
2018-04-16T13:52:36.932Z,2.30
2018-04-16T13:55:05.019Z,2.30
2018-04-16T13:57:33.182Z,2.40
2018-04-16T14:00:01.316Z,3.00
2018-04-16T14:02:30.190Z,2.27
2018-04-16T14:04:58.310Z,2.50
2018-04-16T14:07:26.412Z,2.90
2018-04-16T14:09:56.069Z,2.47
2018-04-16T14:12:24.211Z,2.50
2018-04-16T14:14:52.327Z,3.13
2018-04-16T14:17:20.489Z,2.60
2018-04-16T14:19:48.608Z,3.23
2018-04-16T14:22:16.726Z,3.23
2018-04-16T14:24:44.866Z,3.00
2018-04-16T14:27:13.002Z,2.70
2018-04-16T14:29:41.157Z,3.50
2018-04-16T14:32:09.351Z,3.00
2018-04-16T14:34:37.492Z,2.50
2018-04-16T14:37:06.356Z,2.70
2018-04-16T14:39:36.012Z,2.80
2018-04-16T14:42:04.117Z,2.60
2018-04-16T14:44:32.234Z,2.73
2018-04-16T14:47:01.166Z,2.67
2018-04-16T14:49:29.314Z,3.00
2018-04-16T14:51:57.572Z,3.17
2018-04-16T14:54:26.453Z,2.87
2018-04-16T14:56:54.589Z,2.90
2018-04-16T14:59:22.837Z,2.20
2018-04-16T15:01:50.977Z,2.67
2018-04-16T15:04:19.846Z,2.70
2018-04-16T15:06:47.997Z,2.53
2018-04-16T15:09:16.509Z,2.77
2018-04-16T15:11:44.635Z,2.30
2018-04-16T15:14:12.748Z,3.20
2018-04-16T15:16:40.870Z,3.23
2018-04-16T15:19:09.061Z,3.27
2018-04-16T15:21:37.290Z,3.20
2018-04-16T15:24:05.337Z,2.53
2018-04-16T15:26:33.445Z,3.40
2018-04-16T15:29:02.374Z,3.33
2018-04-16T15:31:30.505Z,3.80
2018-04-16T15:33:59.407Z,3.23
2018-04-16T15:36:28.279Z,3.67
2018-04-16T15:38:57.187Z,3.50
2018-04-16T15:41:25.356Z,3.83
2018-04-16T15:43:54.260Z,3.93
2018-04-16T15:46:22.374Z,3.90
2018-04-16T15:48:50.533Z,3.93
2018-04-16T15:51:18.629Z,3.90
2018-04-16T15:53:48.262Z,3.33
2018-04-16T15:56:17.147Z,3.43
2018-04-16T15:58:45.259Z,3.40
2018-04-16T16:01:13.397Z,3.13
2018-04-16T16:03:42.280Z,2.70
2018-04-16T16:06:10.393Z,3.10
2018-04-16T16:08:38.519Z,2.60
2018-04-16T16:11:06.676Z,2.90
2018-04-16T16:13:34.825Z,2.57
2018-04-16T16:16:02.922Z,2.77
2018-04-16T16:18:31.041Z,3.07
2018-04-16T16:20:59.176Z,2.67
2018-04-16T16:23:27.392Z,3.00
2018-04-16T16:25:55.527Z,3.27
2018-04-16T16:28:23.658Z,2.57
2018-04-16T16:30:51.806Z,3.00
2018-04-16T16:33:21.544Z,3.10
2018-04-16T16:35:49.642Z,2.70
2018-04-16T16:38:17.822Z,2.73
2018-04-16T16:40:45.959Z,3.10
2018-04-16T16:43:14.062Z,2.80
2018-04-16T16:45:42.300Z,2.90
2018-04-16T16:48:10.414Z,2.77
2018-04-16T16:50:38.661Z,2.60
2018-04-16T16:53:06.765Z,2.80
2018-04-16T16:55:34.882Z,3.07
2018-04-16T16:58:03.871Z,2.90
2018-04-16T17:00:32.883Z,3.10
2018-04-16T17:03:00.994Z,2.90
2018-04-16T17:05:30.631Z,3.00
2018-04-16T17:07:59.588Z,2.60
2018-04-16T17:10:27.701Z,3.47
2018-04-16T17:12:56.604Z,2.70
2018-04-16T17:15:25.517Z,2.83
2018-04-16T17:17:53.675Z,2.77
2018-04-16T17:20:21.793Z,2.73
2018-04-16T17:22:50.028Z,3.00
2018-04-16T17:25:18.207Z,3.00
2018-04-16T17:27:46.319Z,3.40
2018-04-16T17:30:14.584Z,2.80
2018-04-16T17:32:42.663Z,2.83
2018-04-16T17:35:10.875Z,3.00
2018-04-16T17:37:39.901Z,2.70
2018-04-16T17:40:08.007Z,3.27
2018-04-16T17:42:36.135Z,3.20
2018-04-16T17:45:04.279Z,2.70
2018-04-16T17:47:33.153Z,3.03
2018-04-16T17:50:01.387Z,2.73
2018-04-16T17:52:29.500Z,2.80
2018-04-16T17:54:57.636Z,2.80
2018-04-16T17:57:25.765Z,3.00
2018-04-16T17:59:54.695Z,2.80
2018-04-16T18:02:22.814Z,2.83
2018-04-16T18:04:50.921Z,2.70
2018-04-16T18:07:19.181Z,2.50
2018-04-16T18:09:48.121Z,3.00
2018-04-16T18:12:16.240Z,2.63
2018-04-16T18:14:45.142Z,2.30
2018-04-16T18:17:14.045Z,2.50
2018-04-16T18:19:42.197Z,2.40
2018-04-16T18:22:11.086Z,2.80
2018-04-16T18:24:40.358Z,2.70
2018-04-16T18:27:08.446Z,2.70
2018-04-16T18:29:36.610Z,2.70
2018-04-16T18:32:04.785Z,2.40
2018-04-16T18:34:33.003Z,2.70
2018-04-16T18:37:01.122Z,2.80
2018-04-16T18:39:29.229Z,2.77
2018-04-16T18:41:58.143Z,2.80
2018-04-16T18:44:26.334Z,3.20
2018-04-16T18:46:54.449Z,3.50
2018-04-16T18:49:22.625Z,3.63
2018-04-16T18:51:50.742Z,4.07
2018-04-16T18:54:18.855Z,3.77
2018-04-16T18:56:46.977Z,4.10
2018-04-16T18:59:15.149Z,4.43
2018-04-16T19:01:43.295Z,4.20
2018-04-16T19:04:11.406Z,4.60
2018-04-16T19:06:39.529Z,4.60
2018-04-16T19:09:07.663Z,5.10
2018-04-16T19:11:35.849Z,4.90
2018-04-16T19:14:03.957Z,5.27
2018-04-16T19:16:32.855Z,5.23
2018-04-16T19:19:01.762Z,4.73
2018-04-16T19:21:35.586Z,4.77
2018-04-16T19:24:03.743Z,5.17
2018-04-16T19:26:32.020Z,4.70
2018-04-16T19:29:00.234Z,4.83
2018-04-16T19:31:28.361Z,4.70
2018-04-16T19:34:02.373Z,4.50
2018-04-16T19:36:30.555Z,4.67
2018-04-16T19:38:58.669Z,5.53
2018-04-16T19:41:26.793Z,5.00
2018-04-16T19:43:54.934Z,4.97
2018-04-16T19:46:24.573Z,4.70
2018-04-16T19:48:58.507Z,5.43
2018-04-16T19:51:26.599Z,4.60
2018-04-16T19:53:54.748Z,4.50
2018-04-16T19:56:28.442Z,4.70
2018-04-16T19:58:56.612Z,4.67
2018-04-16T20:01:24.730Z,4.60
2018-04-16T20:03:58.601Z,5.43
2018-04-16T20:06:26.715Z,5.13
2018-04-16T20:08:56.349Z,5.10
2018-04-16T20:11:25.360Z,4.70
2018-04-16T20:16:22.732Z,4.97
2018-04-16T20:18:51.609Z,5.30
2018-04-16T20:21:20.482Z,4.87
2018-04-16T20:23:48.615Z,4.77
2018-04-16T20:26:16.726Z,5.07
2018-04-16T20:28:50.359Z,5.10
2018-04-16T20:31:18.488Z,4.83
2018-04-16T20:33:46.704Z,4.70
2018-04-16T20:36:15.580Z,5.17
2018-04-16T20:38:44.470Z,5.60
2018-04-16T20:41:13.378Z,5.53
2018-04-16T20:43:42.286Z,4.60
2018-04-16T20:46:10.454Z,5.67
2018-04-16T20:48:38.567Z,5.03
2018-04-16T20:51:06.705Z,5.07
2018-04-16T20:53:34.846Z,5.00
2018-04-16T20:56:03.748Z,4.97
2018-04-16T20:58:32.650Z,5.00
2018-04-16T21:01:00.806Z,4.70
2018-04-16T21:03:29.699Z,4.63
2018-04-16T21:05:58.614Z,4.87
2018-04-16T21:08:26.750Z,4.93
2018-04-16T21:10:54.870Z,5.37
2018-04-16T21:13:23.017Z,5.00
2018-04-16T21:15:51.137Z,4.83
2018-04-16T21:18:19.289Z,4.80
2018-04-16T21:20:47.495Z,5.50
2018-04-16T21:23:15.586Z,5.27
2018-04-16T21:25:44.469Z,5.10
2018-04-16T21:28:12.619Z,5.30
2018-04-16T21:30:40.746Z,5.20
2018-04-16T21:33:08.901Z,4.97
2018-04-16T21:35:37.015Z,4.57
2018-04-16T21:38:05.129Z,5.27
2018-04-16T21:40:33.277Z,5.23
2018-04-16T21:43:01.413Z,5.73
2018-04-16T21:45:30.307Z,5.40
2018-04-16T21:47:58.519Z,5.80
2018-04-16T21:50:26.875Z,5.47
2018-04-16T21:52:55.026Z,5.63
2018-04-16T21:55:23.199Z,5.27
2018-04-16T21:57:51.373Z,5.17
2018-04-16T22:00:19.613Z,5.85
2018-04-16T22:02:47.803Z,4.90
2018-04-16T22:05:16.738Z,5.65
2018-04-16T22:07:44.889Z,5.27
2018-04-16T22:10:13.059Z,5.60
2018-04-16T22:12:41.224Z,5.50
2018-04-16T22:15:09.362Z,5.67
2018-04-16T22:17:38.996Z,5.87
2018-04-16T22:20:07.882Z,5.33
2018-04-16T22:22:36.772Z,5.37
2018-04-16T22:25:04.892Z,5.60
2018-04-16T22:27:33.034Z,5.25
2018-04-16T22:30:01.923Z,5.47
2018-04-16T22:32:30.858Z,5.12
2018-04-16T22:34:59.016Z,5.75
2018-04-16T22:37:27.126Z,5.85
2018-04-16T22:39:55.356Z,5.20
2018-04-16T22:42:23.491Z,6.12
2018-04-16T22:44:52.394Z,5.97
2018-04-16T22:47:21.321Z,6.10
2018-04-16T22:49:49.449Z,5.82
2018-04-16T22:52:18.369Z,6.40
2018-04-16T22:54:46.521Z,5.80
2018-04-16T22:57:15.430Z,5.80
2018-04-16T22:59:43.559Z,6.07
2018-04-16T23:02:11.687Z,5.95
2018-04-16T23:04:39.807Z,5.75
2018-04-16T23:07:09.429Z,5.75
2018-04-16T23:09:38.325Z,6.45
2018-04-16T23:12:07.363Z,6.12
2018-04-16T23:14:35.515Z,5.93
2018-04-16T23:17:03.641Z,6.00
2018-04-16T23:19:31.849Z,5.15
2018-04-16T23:21:59.971Z,5.75
2018-04-16T23:24:28.116Z,6.00
2018-04-16T23:26:56.271Z,5.68
2018-04-16T23:29:24.399Z,5.78
2018-04-16T23:31:52.515Z,5.95
2018-04-16T23:34:20.643Z,5.70
2018-04-16T23:36:48.770Z,5.57
2018-04-16T23:39:16.897Z,5.82
2018-04-16T23:41:45.123Z,5.97
2018-04-16T23:44:13.237Z,5.68
2018-04-16T23:46:41.372Z,5.10
2018-04-16T23:49:09.502Z,5.97
2018-04-16T23:51:39.114Z,5.80
2018-04-16T23:54:08.035Z,6.32
2018-04-16T23:56:36.161Z,5.62
2018-04-16T23:59:04.279Z,5.68
